createdAt,value
2022-08-05T00:00:00.602Z,84.77
2022-08-05T00:00:20.320Z,84.58
2022-08-05T00:00:46.670Z,84.65
2022-08-05T00:01:20.050Z,84.83
2022-08-05T00:01:28.588Z,84.7
2022-08-05T00:01:48.864Z,84.66
2022-08-05T00:02:07.738Z,84.86
2022-08-05T00:02:20.835Z,84.38
2022-08-05T00:02:40.925Z,84.43
2022-08-05T00:03:00.943Z,84.35
2022-08-05T00:03:21.037Z,84.66
2022-08-05T00:03:41.137Z,84.8
2022-08-05T00:04:01.203Z,84.89
2022-08-05T00:04:21.269Z,84.85
2022-08-05T00:04:41.363Z,84.88
2022-08-05T00:05:05.717Z,84.91
2022-08-05T00:06:01.839Z,85.06
2022-08-05T00:06:04.624Z,84.98
2022-08-05T00:06:20.275Z,84.97
2022-08-05T00:06:32.311Z,83.93
2022-08-05T00:06:41.919Z,84.34
2022-08-05T00:07:27.327Z,84.26
2022-08-05T00:07:58.894Z,84.49
2022-08-05T00:08:01.030Z,84.36
2022-08-05T00:08:02.835Z,84.06
2022-08-05T00:08:34.569Z,83.85
2022-08-05T00:08:42.307Z,84.11
2022-08-05T00:09:02.371Z,83.98
2022-08-05T00:09:22.471Z,83.95
2022-08-05T00:09:42.548Z,83.71
2022-08-05T00:10:02.638Z,83.9
2022-08-05T00:10:22.729Z,83.98
2022-08-05T00:10:42.815Z,83.96
2022-08-05T00:11:02.876Z,84.29
2022-08-05T00:11:30.598Z,84.09
2022-08-05T00:11:48.315Z,84.24
2022-08-05T00:12:03.047Z,84.23
2022-08-05T00:12:23.106Z,84.22
2022-08-05T00:12:56.607Z,84.37
2022-08-05T00:13:03.266Z,84.41
2022-08-05T00:13:39.206Z,84.27
2022-08-05T00:13:43.412Z,84.27
2022-08-05T00:14:12.788Z,84.22
2022-08-05T00:14:27.744Z,84.16
2022-08-05T00:14:43.666Z,84.08
2022-08-05T00:15:53.986Z,84.12
2022-08-05T00:15:55.300Z,83.73
2022-08-05T00:15:55.669Z,84.04
2022-08-05T00:16:04.016Z,83.69
2022-08-05T00:16:36.175Z,83.74
2022-08-05T00:16:52.820Z,83.87
2022-08-05T00:17:04.267Z,83.5
2022-08-05T00:17:24.307Z,83.64
2022-08-05T00:17:44.373Z,83.58
2022-08-05T00:18:04.448Z,83.59
2022-08-05T00:18:24.517Z,83.72
2022-08-05T00:18:44.605Z,83.74
2022-08-05T00:19:04.667Z,83.87
2022-08-05T00:19:33.537Z,83.87
2022-08-05T00:19:45.877Z,83.79
2022-08-05T00:20:04.912Z,84.05
2022-08-05T00:20:28.760Z,83.95
2022-08-05T00:20:45.043Z,83.85
2022-08-05T00:21:05.135Z,83.82
2022-08-05T00:21:25.222Z,83.88
2022-08-05T00:21:45.360Z,83.63
2022-08-05T00:22:05.327Z,83.57
2022-08-05T00:22:25.415Z,83.53
2022-08-05T00:22:47.011Z,83.81
2022-08-05T00:23:13.051Z,83.7
2022-08-05T00:23:44.183Z,84.24
2022-08-05T00:23:53.628Z,84.2
2022-08-05T00:24:10.423Z,84.18
2022-08-05T00:24:30.766Z,83.92
2022-08-05T00:24:45.989Z,83.98
2022-08-05T00:25:08.416Z,84.14
2022-08-05T00:25:26.142Z,83.95
2022-08-05T00:25:46.413Z,84.02
2022-08-05T00:26:06.311Z,83.95
2022-08-05T00:26:26.404Z,84.13
2022-08-05T00:26:50.761Z,83.74
2022-08-05T00:27:10.463Z,83.91
2022-08-05T00:27:35.673Z,83.91
2022-08-05T00:27:46.697Z,84.08
2022-08-05T00:28:06.764Z,84.05
2022-08-05T00:28:29.756Z,84.07
2022-08-05T00:28:46.932Z,84.05
2022-08-05T00:29:07.023Z,84.13
2022-08-05T00:29:27.657Z,84.23
2022-08-05T00:29:47.191Z,84.28
2022-08-05T00:30:11.266Z,84.23
2022-08-05T00:30:31.939Z,84.34
2022-08-05T00:30:47.424Z,84.03
2022-08-05T00:31:07.805Z,84.07
2022-08-05T00:31:53.827Z,83.85
2022-08-05T00:32:11.063Z,83.96
2022-08-05T00:32:12.197Z,84.02
2022-08-05T00:32:27.773Z,84.08
2022-08-05T00:32:47.850Z,84.36
2022-08-05T00:34:42.181Z,84.44
2022-08-05T00:34:53.307Z,84.38
2022-08-05T00:34:55.859Z,84.59
2022-08-05T00:34:56.560Z,84.43
2022-08-05T00:34:56.561Z,84.34
2022-08-05T00:35:05.065Z,84.32
2022-08-05T00:35:08.404Z,84.25
2022-08-05T00:35:33.433Z,84.33
2022-08-05T00:36:16.199Z,84.27
2022-08-05T00:36:16.440Z,84.29
2022-08-05T00:37:09.985Z,84.63
2022-08-05T00:37:11.459Z,84.51
2022-08-05T00:37:13.542Z,84.77
2022-08-05T00:37:50.542Z,84.53
2022-08-05T00:37:52.978Z,84.48
2022-08-05T00:38:09.483Z,84.34
2022-08-05T00:38:33.955Z,84.59
2022-08-05T00:38:49.226Z,84.47
2022-08-05T00:39:13.726Z,84.42
2022-08-05T00:39:29.581Z,84.53
2022-08-05T00:39:58.706Z,84.7
2022-08-05T00:40:09.608Z,84.63
2022-08-05T00:40:29.640Z,84.43
2022-08-05T00:40:51.998Z,84.57
2022-08-05T00:41:11.650Z,84.33
2022-08-05T00:41:29.882Z,84.33
2022-08-05T00:41:55.103Z,84.6
2022-08-05T00:42:10.022Z,84.38
2022-08-05T00:42:31.567Z,84.18
2022-08-05T00:42:50.185Z,84.27
2022-08-05T00:43:10.279Z,84.2
2022-08-05T00:43:30.349Z,84.42
2022-08-05T00:43:50.444Z,84.33
2022-08-05T00:44:10.515Z,84.35
2022-08-05T00:44:31.628Z,84.27
2022-08-05T00:44:50.678Z,84.25
2022-08-05T00:45:11.797Z,84.28
2022-08-05T00:45:42.913Z,84.17
2022-08-05T00:45:50.925Z,84.29
2022-08-05T00:46:11.001Z,84.28
2022-08-05T00:46:42.702Z,84.31
2022-08-05T00:46:53.926Z,84.32
2022-08-05T00:47:11.984Z,84.54
2022-08-05T00:47:53.246Z,84.48
2022-08-05T00:47:57.018Z,84.31
2022-08-05T00:48:11.496Z,84.35
2022-08-05T00:48:31.816Z,84.39
2022-08-05T00:48:51.647Z,84.5
2022-08-05T00:49:14.083Z,84.34
2022-08-05T00:49:32.778Z,84.39
2022-08-05T00:49:52.018Z,84.37
2022-08-05T00:50:11.936Z,84.3
2022-08-05T00:50:32.017Z,84.31
2022-08-05T00:50:52.122Z,84.39
2022-08-05T00:51:51.751Z,84.41
2022-08-05T00:51:51.774Z,84.35
2022-08-05T00:51:52.443Z,84.48
2022-08-05T00:52:12.457Z,84.33
2022-08-05T00:52:32.550Z,84.23
2022-08-05T00:52:53.253Z,84.25
2022-08-05T00:53:59.895Z,84.09
2022-08-05T00:54:01.296Z,84.26
2022-08-05T00:54:02.447Z,84.24
2022-08-05T00:54:12.992Z,84.02
2022-08-05T00:54:33.076Z,84.44
2022-08-05T00:54:53.163Z,84.56
2022-08-05T00:55:13.261Z,84.12
2022-08-05T00:55:42.159Z,84.19
2022-08-05T00:55:53.402Z,83.76
2022-08-05T00:56:13.492Z,83.88
2022-08-05T00:56:33.577Z,83.94
2022-08-05T00:56:53.759Z,83.99
2022-08-05T00:57:13.748Z,84.03
2022-08-05T00:57:55.676Z,83.97
2022-08-05T00:57:57.957Z,83.94
2022-08-05T00:58:14.046Z,84.02
2022-08-05T00:58:34.144Z,84.09
2022-08-05T00:58:54.193Z,83.65
2022-08-05T00:59:14.258Z,83.36
2022-08-05T00:59:34.554Z,83.39
2022-08-05T00:59:54.418Z,83.42
2022-08-05T01:00:14.483Z,83.39
2022-08-05T01:00:34.639Z,83.79
2022-08-05T01:00:54.785Z,83.5
2022-08-05T01:01:14.845Z,83.38
2022-08-05T01:01:48.335Z,83.66
2022-08-05T01:01:55.090Z,83.75
2022-08-05T01:02:14.959Z,83.66
2022-08-05T01:02:35.036Z,83.58
2022-08-05T01:02:55.140Z,83.4
2022-08-05T01:03:22.643Z,83.68
2022-08-05T01:03:35.308Z,83.55
2022-08-05T01:03:55.411Z,83.36
2022-08-05T01:04:15.929Z,83.34
2022-08-05T01:04:35.558Z,83.43
2022-08-05T01:04:55.630Z,83.34
2022-08-05T01:05:15.720Z,83.35
2022-08-05T01:05:35.815Z,83.36
2022-08-05T01:05:55.891Z,83.47
2022-08-05T01:06:15.988Z,83.72
2022-08-05T01:06:36.088Z,83.51
2022-08-05T01:06:56.234Z,83.57
2022-08-05T01:07:31.488Z,83.33
2022-08-05T01:07:36.278Z,83.26
2022-08-05T01:08:40.529Z,83.23
2022-08-05T01:08:42.157Z,83.3
2022-08-05T01:08:42.935Z,83.07
2022-08-05T01:08:56.603Z,83.31
2022-08-05T01:09:17.244Z,83.25
2022-08-05T01:09:36.759Z,83.1
2022-08-05T01:09:56.853Z,82.99
2022-08-05T01:10:16.952Z,82.89
2022-08-05T01:10:37.025Z,82.97
2022-08-05T01:10:57.926Z,82.99
2022-08-05T01:11:22.659Z,82.54
2022-08-05T01:11:37.669Z,82.72
2022-08-05T01:12:00.724Z,82.73
2022-08-05T01:12:18.639Z,82.65
2022-08-05T01:12:37.511Z,82.66
2022-08-05T01:13:12.761Z,82.73
2022-08-05T01:13:22.182Z,82.61
2022-08-05T01:13:58.241Z,82.67
2022-08-05T01:13:59.739Z,82.8
2022-08-05T01:14:17.899Z,82.76
2022-08-05T01:14:37.965Z,82.51
2022-08-05T01:14:58.050Z,82.52
2022-08-05T01:15:35.111Z,82.27
2022-08-05T01:15:38.229Z,82.01
2022-08-05T01:15:58.308Z,81.48
2022-08-05T01:16:23.009Z,81.48
2022-08-05T01:16:38.464Z,81.52
2022-08-05T01:16:58.584Z,81.95
2022-08-05T01:17:18.588Z,82.22
2022-08-05T01:17:40.179Z,82.05
2022-08-05T01:17:58.733Z,81.57
2022-08-05T01:18:18.809Z,81.85
2022-08-05T01:18:38.856Z,81.89
2022-08-05T01:18:58.940Z,82.04
2022-08-05T01:19:19.002Z,81.93
2022-08-05T01:20:00.893Z,81.55
2022-08-05T01:20:02.890Z,81.89
2022-08-05T01:20:19.205Z,82
2022-08-05T01:20:39.253Z,82.06
2022-08-05T01:20:59.330Z,81.57
2022-08-05T01:21:22.665Z,81.8
2022-08-05T01:21:39.467Z,81.95
2022-08-05T01:21:59.616Z,81.7
2022-08-05T01:22:24.456Z,81.74
2022-08-05T01:22:39.733Z,81.73
2022-08-05T01:22:59.814Z,81.3
2022-08-05T01:23:22.735Z,81.4
2022-08-05T01:23:39.974Z,80.94
2022-08-05T01:24:00.060Z,81.18
2022-08-05T01:24:20.137Z,80.56
2022-08-05T01:24:40.224Z,80.21
2022-08-05T01:25:00.315Z,80.34
2022-08-05T01:25:20.421Z,80.47
2022-08-05T01:25:41.689Z,81.08
2022-08-05T01:26:00.582Z,81.09
2022-08-05T01:26:20.639Z,81.2
2022-08-05T01:26:40.726Z,81.04
2022-08-05T01:27:00.906Z,81.07
2022-08-05T01:27:22.227Z,81.03
2022-08-05T01:27:55.372Z,81.15
2022-08-05T01:28:01.368Z,81.1
2022-08-05T01:28:21.137Z,81.01
2022-08-05T01:28:41.215Z,81.39
2022-08-05T01:29:04.295Z,81.52
2022-08-05T01:29:23.101Z,80.86
2022-08-05T01:29:42.926Z,80.57
2022-08-05T01:30:01.574Z,80.42
2022-08-05T01:30:34.760Z,79.77
2022-08-05T01:30:53.583Z,79.63
2022-08-05T01:31:03.117Z,79.95
2022-08-05T01:31:21.830Z,79.62
2022-08-05T01:31:42.639Z,79.82
2022-08-05T01:32:02.086Z,79.85
2022-08-05T01:32:22.101Z,80.19
2022-08-05T01:32:42.186Z,80.07
2022-08-05T01:33:02.260Z,79.94
2022-08-05T01:33:22.356Z,80.09
2022-08-05T01:33:42.457Z,80.32
2022-08-05T01:34:02.517Z,80.42
2022-08-05T01:34:22.611Z,80.11
2022-08-05T01:34:42.713Z,80.23
2022-08-05T01:35:02.799Z,79.89
2022-08-05T01:35:51.806Z,79.94
2022-08-05T01:35:52.010Z,80.19
2022-08-05T01:36:03.050Z,80.15
2022-08-05T01:36:27.901Z,80.09
2022-08-05T01:36:46.899Z,80.01
2022-08-05T01:37:03.381Z,80.25
2022-08-05T01:37:24.966Z,80.26
2022-08-05T01:37:44.480Z,80.28
2022-08-05T01:38:03.572Z,80.3
2022-08-05T01:38:27.581Z,80.37
2022-08-05T01:38:43.771Z,79.63
2022-08-05T01:39:03.882Z,79.92
2022-08-05T01:39:45.617Z,79.29
2022-08-05T01:39:46.778Z,79.49
2022-08-05T01:40:04.126Z,79.24
2022-08-05T01:40:28.007Z,78.89
2022-08-05T01:40:44.237Z,78.93
2022-08-05T01:41:04.324Z,78.86
2022-08-05T01:41:25.696Z,78.7
2022-08-05T01:41:44.586Z,78.56
2022-08-05T01:42:04.636Z,78.36
2022-08-05T01:42:24.649Z,78.48
2022-08-05T01:42:44.749Z,78.41
2022-08-05T01:43:04.801Z,78.3
2022-08-05T01:43:24.862Z,78.17
2022-08-05T01:43:44.972Z,78.04
2022-08-05T01:44:05.070Z,78.31
2022-08-05T01:44:25.120Z,77.9
2022-08-05T01:44:45.712Z,78.06
2022-08-05T01:45:05.295Z,78.23
2022-08-05T01:45:25.374Z,78.17
2022-08-05T01:45:45.457Z,78.19
2022-08-05T01:46:07.370Z,78.12
2022-08-05T01:46:42.209Z,78.07
2022-08-05T01:46:46.397Z,78.06
2022-08-05T01:47:06.772Z,78.16
2022-08-05T01:47:25.885Z,78.04
2022-08-05T01:47:45.969Z,77.86
2022-08-05T01:48:10.372Z,78.02
2022-08-05T01:48:26.094Z,77.41
2022-08-05T01:48:46.173Z,78.02
2022-08-05T01:49:23.381Z,78.07
2022-08-05T01:49:26.322Z,77.98
2022-08-05T01:50:02.160Z,77.98
2022-08-05T01:50:06.456Z,78.06
2022-08-05T01:50:28.520Z,78.31
2022-08-05T01:50:50.915Z,77.97
2022-08-05T01:51:12.152Z,77.65
2022-08-05T01:51:26.816Z,77.85
2022-08-05T01:51:51.889Z,77.8
2022-08-05T01:52:17.583Z,77.9
2022-08-05T01:52:27.020Z,78.03
2022-08-05T01:52:49.939Z,78.17
2022-08-05T01:53:07.177Z,78.09
2022-08-05T01:53:57.448Z,78.27
2022-08-05T01:53:57.468Z,78.47
2022-08-05T01:54:07.401Z,78.64
2022-08-05T01:54:27.500Z,78.71
2022-08-05T01:54:47.539Z,78.12
2022-08-05T01:55:07.620Z,78
2022-08-05T01:55:27.697Z,77.81
2022-08-05T01:55:47.766Z,78.08
2022-08-05T01:56:08.913Z,78.52
2022-08-05T01:58:09.704Z,78.72
2022-08-05T01:58:10.036Z,79.84
2022-08-05T01:58:12.154Z,78.94
2022-08-05T01:58:12.973Z,79.26
2022-08-05T01:58:15.350Z,80.19
2022-08-05T01:58:29.257Z,79.54
2022-08-05T01:58:29.804Z,80.02
2022-08-05T01:58:48.690Z,80.35
2022-08-05T01:59:08.623Z,80.03
2022-08-05T01:59:28.671Z,80.09
2022-08-05T01:59:48.767Z,79.72
2022-08-05T02:00:11.719Z,79.63
2022-08-05T02:00:30.054Z,79.56
2022-08-05T02:00:49.034Z,79.13
2022-08-05T02:01:09.326Z,79.24
2022-08-05T02:01:29.241Z,79.35
2022-08-05T02:01:49.337Z,79.52
2022-08-05T02:02:09.391Z,79.33
2022-08-05T02:02:29.431Z,79.19
2022-08-05T02:02:54.307Z,79.21
2022-08-05T02:03:24.601Z,79.22
2022-08-05T02:03:31.773Z,79.28
2022-08-05T02:03:49.673Z,79.27
2022-08-05T02:04:10.295Z,79.14
2022-08-05T02:04:29.975Z,79.01
2022-08-05T02:04:49.921Z,79.2
2022-08-05T02:05:11.785Z,79.22
2022-08-05T02:05:30.072Z,79.54
2022-08-05T02:05:50.160Z,79.5
2022-08-05T02:06:37.272Z,79.47
2022-08-05T02:06:37.563Z,79.48
2022-08-05T02:06:50.399Z,79.63
2022-08-05T02:07:10.533Z,80.25
2022-08-05T02:07:30.670Z,79.98
2022-08-05T02:08:00.952Z,79.51
2022-08-05T02:08:10.706Z,79.89
2022-08-05T02:08:31.649Z,80.18
2022-08-05T02:08:57.829Z,79.96
2022-08-05T02:09:10.936Z,79.9
2022-08-05T02:09:31.019Z,80.63
2022-08-05T02:09:51.214Z,80.72
2022-08-05T02:10:11.214Z,80.01
2022-08-05T02:10:31.284Z,79.66
2022-08-05T02:10:51.316Z,79.89
2022-08-05T02:11:11.801Z,80.27
2022-08-05T02:11:33.135Z,80.6
2022-08-05T02:11:52.500Z,80.48
2022-08-05T02:12:11.727Z,80.36
2022-08-05T02:12:32.779Z,80.46
2022-08-05T02:12:51.828Z,80.41
2022-08-05T02:13:15.776Z,80.41
2022-08-05T02:13:48.649Z,81.15
2022-08-05T02:13:53.611Z,81.25
2022-08-05T02:14:12.700Z,81.15
2022-08-05T02:14:32.344Z,80.94
2022-08-05T02:14:52.262Z,81.45
2022-08-05T02:15:12.689Z,81.41
2022-08-05T02:15:33.550Z,80.87
2022-08-05T02:15:52.511Z,80.85
2022-08-05T02:16:16.351Z,81.71
2022-08-05T02:16:32.625Z,82.05
2022-08-05T02:16:53.262Z,81.69
2022-08-05T02:17:29.938Z,82.04
2022-08-05T02:18:27.712Z,81.52
2022-08-05T02:18:28.687Z,81.62
2022-08-05T02:18:32.645Z,81.53
2022-08-05T02:18:35.053Z,81.79
2022-08-05T02:18:53.118Z,82.29
2022-08-05T02:19:13.207Z,82.39
2022-08-05T02:19:33.481Z,82.65
2022-08-05T02:19:53.326Z,83.44
2022-08-05T02:20:13.369Z,84.11
2022-08-05T02:20:33.461Z,84.05
2022-08-05T02:20:53.533Z,84.47
2022-08-05T02:21:15.395Z,84.91
2022-08-05T02:21:43.340Z,84.82
2022-08-05T02:21:53.790Z,84.89
2022-08-05T02:22:17.505Z,85.55
2022-08-05T02:22:33.922Z,85.75
2022-08-05T02:22:54.008Z,85.65
2022-08-05T02:23:14.090Z,86.07
2022-08-05T02:23:35.698Z,86.49
2022-08-05T02:23:54.276Z,86.63
2022-08-05T02:24:14.350Z,86.69
2022-08-05T02:24:34.412Z,86.58
2022-08-05T02:24:54.470Z,86.72
2022-08-05T02:25:14.599Z,86.93
2022-08-05T02:25:35.941Z,87.05
2022-08-05T02:25:54.737Z,87.15
2022-08-05T02:26:14.826Z,87.27
2022-08-05T02:26:34.881Z,87.39
2022-08-05T02:26:55.158Z,88.04
2022-08-05T02:27:15.135Z,88.22
2022-08-05T02:27:58.059Z,88.4
2022-08-05T02:27:59.538Z,88.25
2022-08-05T02:28:15.308Z,88.2
2022-08-05T02:28:41.448Z,88.43
2022-08-05T02:28:55.421Z,88.29
2022-08-05T02:29:21.363Z,88.42
2022-08-05T02:29:58.379Z,88.44
2022-08-05T02:29:59.441Z,88.73
2022-08-05T02:30:15.700Z,88.79
2022-08-05T02:30:35.798Z,89.19
2022-08-05T02:30:56.607Z,89.22
2022-08-05T02:31:15.978Z,88.86
2022-08-05T02:31:36.014Z,88.58
2022-08-05T02:31:56.097Z,88.49
2022-08-05T02:32:23.856Z,88.5
2022-08-05T02:32:36.246Z,88.34
2022-08-05T02:32:56.328Z,88.08
2022-08-05T02:33:16.438Z,88.22
2022-08-05T02:33:38.807Z,88.2
2022-08-05T02:33:57.288Z,87.7
2022-08-05T02:34:16.664Z,87.55
2022-08-05T02:34:36.767Z,86.95
2022-08-05T02:34:56.839Z,87.5
2022-08-05T02:35:19.001Z,87.79
2022-08-05T02:35:37.597Z,87.92
2022-08-05T02:35:59.115Z,88.23
2022-08-05T02:36:17.152Z,88.33
2022-08-05T02:36:37.240Z,87.98
2022-08-05T02:36:57.286Z,88.38
2022-08-05T02:37:17.425Z,88.56
2022-08-05T02:37:37.400Z,88.59
2022-08-05T02:38:00.109Z,89.21
2022-08-05T02:38:19.359Z,89.3
2022-08-05T02:38:37.581Z,89.46
2022-08-05T02:38:57.856Z,89.93
2022-08-05T02:39:17.774Z,90.07
2022-08-05T02:39:37.877Z,90.17
2022-08-05T02:39:57.886Z,90.36
2022-08-05T02:40:17.969Z,90.42
2022-08-05T02:40:38.066Z,90.66
2022-08-05T02:40:58.152Z,90.61
2022-08-05T02:41:18.224Z,90.55
2022-08-05T02:41:57.956Z,90.55
2022-08-05T02:42:01.281Z,90.72
2022-08-05T02:42:25.811Z,90.72
2022-08-05T02:42:38.553Z,90.82
2022-08-05T02:42:58.658Z,90.97
2022-08-05T02:43:18.742Z,90.74
2022-08-05T02:43:38.829Z,90.64
2022-08-05T02:44:02.497Z,90.66
2022-08-05T02:44:18.991Z,90.69
2022-08-05T02:44:39.036Z,90.75
2022-08-05T02:44:59.075Z,90.7
2022-08-05T02:45:19.164Z,90.42
2022-08-05T02:45:51.539Z,89.9
2022-08-05T02:46:01.107Z,89.34
2022-08-05T02:46:19.425Z,89.11
2022-08-05T02:46:53.544Z,89.05
2022-08-05T02:47:00.908Z,88.75
2022-08-05T02:47:19.756Z,88.6
2022-08-05T02:48:11.449Z,88.5
2022-08-05T02:48:11.975Z,88.48
2022-08-05T02:48:19.901Z,88.51
2022-08-05T02:48:39.971Z,88.11
2022-08-05T02:49:00.028Z,88.21
2022-08-05T02:49:20.120Z,88.06
2022-08-05T02:49:40.696Z,88.23
2022-08-05T02:50:00.283Z,88.23
2022-08-05T02:50:20.375Z,87.65
2022-08-05T02:50:43.521Z,87.25
2022-08-05T02:51:00.519Z,86.5
2022-08-05T02:51:28.115Z,85.96
2022-08-05T02:52:03.012Z,86.09
2022-08-05T02:52:03.232Z,85.99
2022-08-05T02:52:29.754Z,85.75
2022-08-05T02:52:40.916Z,85.31
2022-08-05T02:53:00.982Z,84.27
2022-08-05T02:53:21.040Z,85.09
2022-08-05T02:53:41.154Z,85.66
2022-08-05T02:54:03.975Z,86.39
2022-08-05T02:54:34.968Z,86.66
2022-08-05T02:54:42.389Z,87.19
2022-08-05T02:55:01.695Z,86.93
2022-08-05T02:55:53.850Z,86.46
2022-08-05T02:55:54.139Z,86.81
2022-08-05T02:56:02.255Z,86.67
2022-08-05T02:56:21.786Z,86.81
2022-08-05T02:56:41.859Z,86.71
2022-08-05T02:57:01.948Z,86.89
2022-08-05T02:58:10.336Z,86.82
2022-08-05T02:58:11.485Z,87.05
2022-08-05T02:58:11.485Z,86.88
2022-08-05T02:58:22.637Z,87.33
2022-08-05T02:58:43.773Z,86.61
2022-08-05T02:59:02.407Z,86.89
2022-08-05T02:59:26.904Z,87.41
2022-08-05T02:59:48.112Z,87.38
2022-08-05T03:00:02.628Z,87.63
2022-08-05T03:00:22.693Z,88.06
2022-08-05T03:00:45.994Z,88.22
2022-08-05T03:01:02.972Z,88.38
2022-08-05T03:01:22.996Z,88.53
2022-08-05T03:01:43.136Z,88.65
2022-08-05T03:02:03.218Z,88.62
2022-08-05T03:02:23.310Z,88.62
2022-08-05T03:02:43.308Z,88.95
2022-08-05T03:03:03.400Z,89.22
2022-08-05T03:03:23.816Z,89.13
2022-08-05T03:04:02.613Z,88.95
2022-08-05T03:04:13.991Z,89.02
2022-08-05T03:04:23.681Z,89.09
2022-08-05T03:04:43.787Z,89.17
2022-08-05T03:05:03.864Z,89.31
2022-08-05T03:06:53.879Z,89.54
2022-08-05T03:06:54.361Z,89.19
2022-08-05T03:06:54.425Z,89.11
2022-08-05T03:06:55.446Z,89.16
2022-08-05T03:06:57.159Z,89.25
2022-08-05T03:07:04.340Z,89.91
2022-08-05T03:07:48.450Z,89.89
2022-08-05T03:08:04.579Z,89.73
2022-08-05T03:08:08.880Z,89.39
2022-08-05T03:08:29.888Z,89.65
2022-08-05T03:08:44.813Z,89.97
2022-08-05T03:09:04.906Z,90.5
2022-08-05T03:09:36.296Z,90.67
2022-08-05T03:09:51.490Z,90.92
2022-08-05T03:10:05.156Z,90.66
2022-08-05T03:10:25.299Z,90.61
2022-08-05T03:11:41.211Z,90.6
2022-08-05T03:11:54.641Z,90.7
2022-08-05T03:11:55.278Z,90.69
2022-08-05T03:11:55.280Z,90.78
2022-08-05T03:12:05.627Z,90.63
2022-08-05T03:12:25.723Z,90.68
2022-08-05T03:12:45.737Z,90.57
2022-08-05T03:13:27.567Z,90.33
2022-08-05T03:13:51.560Z,90.28
2022-08-05T03:14:06.006Z,90.31
2022-08-05T03:14:26.263Z,89.9
2022-08-05T03:14:48.104Z,89.25
2022-08-05T03:15:06.686Z,88.85
2022-08-05T03:15:26.307Z,89.26
2022-08-05T03:15:46.373Z,89.99
2022-08-05T03:16:06.469Z,90.17
2022-08-05T03:16:26.523Z,90.13
2022-08-05T03:16:46.589Z,90.3
2022-08-05T03:17:09.086Z,90.47
2022-08-05T03:17:26.951Z,90.33
2022-08-05T03:17:46.803Z,90.32
2022-08-05T03:18:06.883Z,90.62
2022-08-05T03:18:30.009Z,91.08
2022-08-05T03:18:47.084Z,91.24
2022-08-05T03:19:12.928Z,91.3
2022-08-05T03:19:34.611Z,91.08
2022-08-05T03:19:47.277Z,91.07
2022-08-05T03:20:07.387Z,91.11
2022-08-05T03:20:27.476Z,91.21
2022-08-05T03:20:48.690Z,91.54
2022-08-05T03:21:07.636Z,91.66
2022-08-05T03:21:28.692Z,91.56
2022-08-05T03:21:49.661Z,91.43
2022-08-05T03:22:16.813Z,91.63
2022-08-05T03:22:32.434Z,91.82
2022-08-05T03:22:50.029Z,91.85
2022-08-05T03:23:08.136Z,91.9
2022-08-05T03:23:28.201Z,91.94
2022-08-05T03:23:48.314Z,92
2022-08-05T03:24:08.407Z,92
2022-08-05T03:24:30.469Z,92.06
2022-08-05T03:24:50.739Z,92.17
2022-08-05T03:25:33.847Z,92.31
2022-08-05T03:25:34.137Z,92.33
2022-08-05T03:26:04.663Z,92.28
2022-08-05T03:26:31.659Z,92.24
2022-08-05T03:26:32.307Z,92.19
2022-08-05T03:26:49.391Z,92.3
2022-08-05T03:27:09.065Z,92.54
2022-08-05T03:27:29.736Z,92.52
2022-08-05T03:27:59.856Z,92.59
2022-08-05T03:28:09.335Z,92.6
2022-08-05T03:28:29.418Z,92.66
2022-08-05T03:28:49.519Z,92.72
2022-08-05T03:29:12.444Z,92.8
2022-08-05T03:29:44.520Z,92.96
2022-08-05T03:30:08.765Z,93.08
2022-08-05T03:30:09.837Z,93.16
2022-08-05T03:30:33.945Z,93.34
2022-08-05T03:30:50.900Z,93.54
2022-08-05T03:31:10.053Z,93.67
2022-08-05T03:31:56.188Z,93.86
2022-08-05T03:31:57.393Z,94
2022-08-05T03:32:10.266Z,94.11
2022-08-05T03:32:30.955Z,94.24
2022-08-05T03:32:50.406Z,94.28
2022-08-05T03:33:10.499Z,94.35
2022-08-05T03:33:32.219Z,94.37
2022-08-05T03:33:52.985Z,94.39
2022-08-05T03:34:10.753Z,94.36
2022-08-05T03:34:30.811Z,94.32
2022-08-05T03:34:51.669Z,94.38
2022-08-05T03:35:10.981Z,94.39
2022-08-05T03:35:33.774Z,94.42
2022-08-05T03:35:51.619Z,94.42
2022-08-05T03:36:12.122Z,94.46
2022-08-05T03:36:31.285Z,94.53
2022-08-05T03:36:51.360Z,94.53
2022-08-05T03:37:11.425Z,94.58
2022-08-05T03:37:31.628Z,94.58
2022-08-05T03:37:51.617Z,94.54
2022-08-05T03:38:11.681Z,94.63
2022-08-05T03:38:33.151Z,94.67
2022-08-05T03:38:53.305Z,94.68
2022-08-05T03:39:19.829Z,94.76
2022-08-05T03:39:38.208Z,94.8
2022-08-05T03:39:58.583Z,94.67
2022-08-05T03:40:12.314Z,94.63
2022-08-05T03:40:32.819Z,94.51
2022-08-05T03:40:52.397Z,94.36
2022-08-05T03:41:12.451Z,94.3
2022-08-05T03:41:33.171Z,94.23
2022-08-05T03:41:52.740Z,94.23
2022-08-05T03:42:12.685Z,94.27
2022-08-05T03:42:52.120Z,94.29
2022-08-05T03:42:53.149Z,94.3
2022-08-05T03:43:59.105Z,94.27
2022-08-05T03:44:08.698Z,94.27
2022-08-05T03:44:09.871Z,94.17
2022-08-05T03:44:13.211Z,94.25
2022-08-05T03:44:33.298Z,94.32
2022-08-05T03:44:53.379Z,94.41
2022-08-05T03:45:21.564Z,94.54
2022-08-05T03:45:57.092Z,94.52
2022-08-05T03:45:58.290Z,94.53
2022-08-05T03:46:13.669Z,94.61
2022-08-05T03:46:33.749Z,94.57
2022-08-05T03:46:53.827Z,94.64
2022-08-05T03:47:13.937Z,94.77
2022-08-05T03:47:35.378Z,94.94
2022-08-05T03:47:57.196Z,94.96
2022-08-05T03:48:14.166Z,95.08
2022-08-05T03:48:35.567Z,95.24
2022-08-05T03:48:54.368Z,95.26
2022-08-05T03:49:14.964Z,95.24
2022-08-05T03:49:52.080Z,95.17
2022-08-05T03:49:54.618Z,95.19
2022-08-05T03:50:14.705Z,95.21
2022-08-05T03:50:34.762Z,95.23
2022-08-05T03:50:54.859Z,95.23
2022-08-05T03:52:38.006Z,95.23
2022-08-05T03:52:38.608Z,95.23
2022-08-05T03:52:48.659Z,95.27
2022-08-05T03:52:48.982Z,95.27
2022-08-05T03:55:06.959Z,95.34
2022-08-05T03:55:49.952Z,95.39
2022-08-05T03:55:50.066Z,95.41
2022-08-05T03:55:50.219Z,95.39
2022-08-05T03:55:51.934Z,95.33
2022-08-05T03:55:52.581Z,95.43
2022-08-05T03:55:53.741Z,95.23
2022-08-05T03:56:00.779Z,95.42
2022-08-05T03:56:04.278Z,95.32
2022-08-05T03:56:04.810Z,95.34
2022-08-05T03:56:10.277Z,95.36
2022-08-05T03:56:17.899Z,95.35
2022-08-05T03:56:36.282Z,95.39
2022-08-05T03:56:58.791Z,95.4
2022-08-05T03:57:42.393Z,95.46
2022-08-05T03:57:42.591Z,95.45
2022-08-05T03:57:56.689Z,95.47
2022-08-05T03:58:16.780Z,95.5
2022-08-05T03:58:36.837Z,95.5
2022-08-05T03:58:56.918Z,95.5
2022-08-05T03:59:20.438Z,95.51
2022-08-05T03:59:46.873Z,95.52
2022-08-05T03:59:57.126Z,95.53
2022-08-05T04:00:17.190Z,95.51
2022-08-05T04:00:37.252Z,95.5
2022-08-05T04:00:57.431Z,95.47
2022-08-05T04:01:17.517Z,95.48
2022-08-05T04:01:37.547Z,95.43
2022-08-05T04:01:59.084Z,95.37
2022-08-05T04:02:37.776Z,95.3
2022-08-05T04:02:45.213Z,95.34
2022-08-05T04:02:59.253Z,95.32
2022-08-05T04:03:28.422Z,95.34
2022-08-05T04:03:37.962Z,95.32
2022-08-05T04:04:10.341Z,95.29
2022-08-05T04:04:21.304Z,95.25
2022-08-05T04:04:38.188Z,95.21
2022-08-05T04:04:58.268Z,95.25
2022-08-05T04:05:18.333Z,95.33
2022-08-05T04:05:38.517Z,95.33
2022-08-05T04:05:59.207Z,95.31
2022-08-05T04:06:18.549Z,95.32
2022-08-05T04:06:38.618Z,95.31
2022-08-05T04:06:58.723Z,95.36
2022-08-05T04:07:18.803Z,95.33
2022-08-05T04:07:57.584Z,95.38
2022-08-05T04:07:59.127Z,95.41
2022-08-05T04:08:35.053Z,95.42
2022-08-05T04:08:39.173Z,95.42
2022-08-05T04:08:59.249Z,95.47
2022-08-05T04:09:20.325Z,95.45
2022-08-05T04:09:39.424Z,95.48
2022-08-05T04:09:59.485Z,95.48
2022-08-05T04:10:19.548Z,95.51
2022-08-05T04:10:39.616Z,95.51
2022-08-05T04:10:59.688Z,95.53
2022-08-05T04:11:19.752Z,95.47
2022-08-05T04:11:50.420Z,95.47
2022-08-05T04:11:59.907Z,95.43
2022-08-05T04:12:23.503Z,95.38
2022-08-05T04:13:00.175Z,95.31
2022-08-05T04:13:20.219Z,95.28
2022-08-05T04:13:51.341Z,95.26
2022-08-05T04:14:00.354Z,95.17
2022-08-05T04:14:30.495Z,95.12
2022-08-05T04:14:40.529Z,95.07
2022-08-05T04:15:00.585Z,95.08
2022-08-05T04:15:20.686Z,95.05
2022-08-05T04:16:03.374Z,94.99
2022-08-05T04:16:04.199Z,95.04
2022-08-05T04:16:24.185Z,95.01
2022-08-05T04:16:40.947Z,94.97
2022-08-05T04:17:02.096Z,94.92
2022-08-05T04:17:21.120Z,94.92
2022-08-05T04:17:56.623Z,94.99
2022-08-05T04:18:01.289Z,95
2022-08-05T04:18:22.594Z,95.02
2022-08-05T04:18:41.445Z,95.06
2022-08-05T04:19:01.560Z,95.05
2022-08-05T04:19:21.626Z,95
2022-08-05T04:19:41.716Z,95.09
2022-08-05T04:20:01.767Z,94.98